createdAt,value
2023-05-21T05:31:33.170Z,20.5091
2023-05-21T05:32:35.139Z,20.3816
2023-05-21T05:33:37.118Z,20.4063
2023-05-21T05:34:39.171Z,20.4183
2023-05-21T05:35:41.235Z,20.4189
2023-05-21T05:36:43.274Z,20.4284
2023-05-21T05:37:45.313Z,20.4441
2023-05-21T05:38:47.380Z,20.4598
2023-05-21T05:39:49.383Z,20.4785
2023-05-21T05:40:51.430Z,20.5003
2023-05-21T05:41:53.511Z,20.5248
2023-05-21T05:42:55.553Z,20.5530
2023-05-21T05:43:57.588Z,20.5918
2023-05-21T05:44:59.632Z,20.6190
2023-05-21T05:46:01.703Z,20.6471
2023-05-21T05:47:03.709Z,20.6724
2023-05-21T05:48:05.766Z,20.6922
2023-05-21T05:49:07.806Z,20.7054
2023-05-21T05:50:09.867Z,20.7269
2023-05-21T05:51:11.920Z,20.7410
2023-05-21T05:52:13.939Z,20.7503
2023-05-21T05:53:15.976Z,20.7655
2023-05-21T05:54:18.022Z,20.7774
2023-05-21T05:55:20.098Z,20.7794
2023-05-21T05:56:22.138Z,20.7886
2023-05-21T05:57:24.155Z,20.7936
2023-05-21T05:58:26.231Z,20.7986
2023-05-21T05:59:28.288Z,20.8033
2023-05-21T06:00:30.350Z,20.8044
2023-05-21T06:01:32.370Z,20.8225
2023-05-21T06:02:34.467Z,20.8395
2023-05-21T06:03:36.679Z,20.8515
2023-05-21T06:04:38.489Z,20.8591
2023-05-21T06:05:40.780Z,20.8606
2023-05-21T06:06:42.591Z,20.8685
2023-05-21T06:07:44.608Z,20.8792
2023-05-21T06:08:46.666Z,20.8923
2023-05-21T06:09:48.715Z,20.9078
2023-05-21T06:10:50.753Z,20.9146
2023-05-21T06:11:52.793Z,20.9114
2023-05-21T06:12:54.851Z,20.9088
2023-05-21T06:13:56.884Z,20.9038
2023-05-21T06:14:58.928Z,20.8973
2023-05-21T06:16:01.043Z,20.8882
2023-05-21T06:17:03.036Z,20.8850
2023-05-21T06:18:05.071Z,20.9029
2023-05-21T06:19:07.128Z,20.9201
2023-05-21T06:20:09.129Z,20.9219
2023-05-21T06:21:11.199Z,20.9271
2023-05-21T06:22:13.262Z,20.9335
2023-05-21T06:23:15.285Z,20.9399
2023-05-21T06:24:17.312Z,20.9386
2023-05-21T06:25:19.375Z,20.9221
2023-05-21T06:26:21.414Z,20.9361
2023-05-21T06:27:23.455Z,20.9506
2023-05-21T06:28:25.490Z,20.9527
2023-05-21T06:29:27.586Z,20.9439
2023-05-21T06:30:29.608Z,20.9476
2023-05-21T06:31:31.630Z,20.9385
2023-05-21T06:32:33.821Z,20.9466
2023-05-21T06:33:35.844Z,20.9605
2023-05-21T06:34:37.793Z,20.9771
2023-05-21T06:35:39.820Z,20.9852
2023-05-21T06:36:41.884Z,20.9780
2023-05-21T06:37:43.939Z,20.9756
2023-05-21T06:38:45.970Z,20.9732
2023-05-21T06:39:48.035Z,20.9667
2023-05-21T06:40:50.049Z,20.9745
2023-05-21T06:41:52.084Z,20.9747
2023-05-21T06:42:54.149Z,20.9691
2023-05-21T06:43:56.188Z,20.9615
2023-05-21T06:44:58.239Z,20.9488
2023-05-21T06:46:00.298Z,20.9497
2023-05-21T06:47:02.305Z,20.9592
2023-05-21T06:48:04.401Z,20.9665
2023-05-21T06:49:06.426Z,20.9615
2023-05-21T06:50:08.461Z,20.9712
2023-05-21T06:51:10.526Z,20.9701
2023-05-21T06:52:12.646Z,20.9674
2023-05-21T06:53:14.580Z,20.9642
2023-05-21T06:54:16.677Z,20.9510
2023-05-21T06:55:18.701Z,20.9410
2023-05-21T06:56:20.735Z,20.9527
2023-05-21T06:57:22.774Z,20.9424
2023-05-21T06:58:24.805Z,20.9308
2023-05-21T06:59:26.869Z,20.9335
2023-05-21T07:00:28.918Z,20.9447
2023-05-21T07:01:31.024Z,20.9441
2023-05-21T07:02:33.181Z,20.9352
2023-05-21T07:03:35.090Z,20.9413
2023-05-21T07:04:37.103Z,20.9744
2023-05-21T07:05:39.643Z,21.0152
2023-05-21T07:06:41.181Z,21.0223
2023-05-21T07:07:43.224Z,20.9925
2023-05-21T07:08:45.295Z,20.9887
2023-05-21T07:09:47.344Z,20.9994
2023-05-21T07:10:49.388Z,21.0121
2023-05-21T07:11:59.002Z,21.0163
2023-05-21T07:12:54.019Z,21.0103
2023-05-21T07:13:55.588Z,21.0290
2023-05-21T07:14:59.371Z,21.0337
2023-05-21T07:15:59.599Z,21.0314
2023-05-21T07:17:01.744Z,21.0528
2023-05-21T07:18:04.519Z,21.0811
2023-05-21T07:19:05.913Z,21.1092
2023-05-21T07:20:07.769Z,21.1208
2023-05-21T07:21:09.822Z,21.1215
2023-05-21T07:22:11.906Z,21.1257
2023-05-21T07:23:13.930Z,21.1375
2023-05-21T07:24:15.982Z,21.1592
2023-05-21T07:25:18.047Z,21.1715
2023-05-21T07:26:20.045Z,21.1959
2023-05-21T07:27:25.738Z,21.2465
2023-05-21T07:28:24.174Z,21.2664
2023-05-21T07:29:26.224Z,21.2905
2023-05-21T07:30:28.252Z,21.3113
2023-05-21T07:31:30.371Z,21.3141
2023-05-21T07:32:32.357Z,21.2993
2023-05-21T07:33:34.408Z,21.2646
2023-05-21T07:34:36.444Z,21.2296
2023-05-21T07:35:38.602Z,21.2366
2023-05-21T07:36:40.567Z,21.2623
2023-05-21T07:37:42.578Z,21.2757
2023-05-21T07:38:44.620Z,21.2873
2023-05-21T07:39:46.666Z,21.2914
2023-05-21T07:40:48.707Z,21.2698
2023-05-21T07:41:50.780Z,21.2619
2023-05-21T07:42:52.836Z,21.2598
2023-05-21T07:43:54.868Z,21.2658
2023-05-21T07:44:56.918Z,21.2639
2023-05-21T07:45:58.983Z,21.2771
2023-05-21T07:47:01.011Z,21.2971
2023-05-21T07:48:03.138Z,21.3139
2023-05-21T07:49:05.120Z,21.3112
2023-05-21T07:50:07.134Z,21.2862
2023-05-21T07:51:09.210Z,21.2845
2023-05-21T07:52:11.251Z,21.2956
2023-05-21T07:53:13.336Z,21.2727
2023-05-21T07:54:15.404Z,21.2420
2023-05-21T07:55:18.034Z,21.2260
2023-05-21T07:56:19.410Z,21.2267
2023-05-21T07:57:21.500Z,21.2439
2023-05-21T07:58:23.517Z,21.2524
2023-05-21T07:59:26.586Z,21.2514
2023-05-21T08:00:27.596Z,21.2408
2023-05-21T08:01:29.662Z,21.2351
2023-05-21T08:02:31.792Z,21.2436
2023-05-21T08:03:33.920Z,21.2432
2023-05-21T08:04:37.478Z,21.2464
2023-05-21T08:05:38.147Z,21.2406
2023-05-21T08:06:40.228Z,21.2248
2023-05-21T08:07:41.918Z,21.2358
2023-05-21T08:08:44.000Z,21.2220
2023-05-21T08:09:46.052Z,21.2112
2023-05-21T08:10:48.089Z,21.2092
2023-05-21T08:11:50.222Z,21.2418
2023-05-21T08:12:52.194Z,21.2617
2023-05-21T08:13:54.250Z,21.2781
2023-05-21T08:14:56.261Z,21.2761
2023-05-21T08:15:58.339Z,21.2982
2023-05-21T08:17:00.381Z,21.3166
2023-05-21T08:18:02.535Z,21.3231
2023-05-21T08:19:04.502Z,21.3114
2023-05-21T08:20:06.512Z,21.2983
2023-05-21T08:21:08.579Z,21.2685
2023-05-21T08:22:10.655Z,21.2468
2023-05-21T08:23:12.721Z,21.2361
2023-05-21T08:24:14.819Z,21.2298
2023-05-21T08:25:16.734Z,21.2440
2023-05-21T08:26:18.821Z,21.2461
2023-05-21T08:27:20.830Z,21.2393
2023-05-21T08:28:22.900Z,21.2403
2023-05-21T08:29:24.924Z,21.2435
2023-05-21T08:30:27.146Z,21.1954
2023-05-21T08:31:29.204Z,21.1605
2023-05-21T08:32:31.124Z,21.1471
2023-05-21T08:33:33.138Z,21.1371
2023-05-21T08:34:36.685Z,21.1193
2023-05-21T08:35:37.382Z,21.1187
2023-05-21T08:36:39.359Z,21.1120
2023-05-21T08:37:41.339Z,21.1149
2023-05-21T08:38:43.362Z,21.1507
2023-05-21T08:39:45.506Z,21.2067
2023-05-21T08:40:47.456Z,21.2607
2023-05-21T08:41:49.770Z,21.2975
2023-05-21T08:42:51.594Z,21.3304
2023-05-21T08:43:54.952Z,21.3528
2023-05-21T08:44:55.727Z,21.3565
2023-05-21T08:45:57.711Z,21.3739
2023-05-21T08:46:59.759Z,21.3845
2023-05-21T08:48:01.835Z,21.3915
2023-05-21T08:49:03.868Z,21.3970
2023-05-21T08:50:05.871Z,21.3971
2023-05-21T08:51:07.937Z,21.3946
2023-05-21T08:52:09.985Z,21.4292
2023-05-21T08:53:23.417Z,21.4503
2023-05-21T08:54:14.097Z,21.4703
2023-05-21T08:55:16.122Z,21.4864
2023-05-21T08:56:18.285Z,21.4989
2023-05-21T08:57:20.256Z,21.4724
2023-05-21T08:58:22.285Z,21.4383
2023-05-21T08:59:24.342Z,21.4472
2023-05-21T09:00:26.373Z,21.4550
2023-05-21T09:01:28.498Z,21.4728
2023-05-21T09:02:30.535Z,21.4863
2023-05-21T09:03:32.579Z,21.4911
2023-05-21T09:04:34.739Z,21.4836
2023-05-21T09:05:36.797Z,21.5172
2023-05-21T09:06:38.741Z,21.5595
2023-05-21T09:07:40.745Z,21.5978
2023-05-21T09:08:42.780Z,21.6018
2023-05-21T09:09:44.823Z,21.5435
2023-05-21T09:10:46.904Z,21.4837
2023-05-21T09:11:48.927Z,21.4461
2023-05-21T09:12:52.019Z,21.3926
2023-05-21T09:13:53.032Z,21.3506
2023-05-21T09:14:55.044Z,21.3448
2023-05-21T09:15:57.099Z,21.3657
2023-05-21T09:16:59.428Z,21.4165
2023-05-21T09:18:01.237Z,21.4502
2023-05-21T09:19:04.603Z,21.4673
2023-05-21T09:20:05.350Z,21.4384
2023-05-21T09:21:07.377Z,21.4223
2023-05-21T09:22:09.415Z,21.4455
2023-05-21T09:23:11.535Z,21.4991
2023-05-21T09:24:13.518Z,21.5346
2023-05-21T09:25:15.675Z,21.5450
2023-05-21T09:26:17.614Z,21.5794
2023-05-21T09:27:19.668Z,21.6012
2023-05-21T09:28:21.756Z,21.6247
2023-05-21T09:29:23.737Z,21.6424
2023-05-21T09:30:28.814Z,21.6521
2023-05-21T09:31:27.902Z,21.6734
2023-05-21T09:32:29.964Z,21.6944
2023-05-21T09:33:32.010Z,21.7071
2023-05-21T09:34:34.060Z,21.7029
2023-05-21T09:35:37.503Z,21.6808
2023-05-21T09:36:38.192Z,21.6973
2023-05-21T09:37:40.231Z,21.6867
2023-05-21T09:38:42.283Z,21.6539
2023-05-21T09:39:44.303Z,21.6187
2023-05-21T09:40:46.396Z,21.5929
2023-05-21T09:41:48.417Z,21.5781
2023-05-21T09:42:50.488Z,21.5812
2023-05-21T09:43:52.499Z,21.5864
2023-05-21T09:44:54.536Z,21.6026
2023-05-21T09:45:57.750Z,21.6477
2023-05-21T09:46:58.843Z,21.6981
2023-05-21T09:48:00.802Z,21.7567
2023-05-21T09:49:02.746Z,21.7783
2023-05-21T09:50:04.821Z,21.7614
2023-05-21T09:51:06.816Z,21.7647
2023-05-21T09:52:08.870Z,21.7572
2023-05-21T09:53:10.968Z,21.7727
2023-05-21T09:54:12.986Z,21.7992
2023-05-21T09:55:15.019Z,21.7892
2023-05-21T09:56:17.105Z,21.7646
2023-05-21T09:57:19.131Z,21.7769
2023-05-21T09:58:21.212Z,21.8400
2023-05-21T09:59:23.799Z,21.8813
2023-05-21T10:00:25.257Z,21.9238
2023-05-21T10:01:27.374Z,21.9691
2023-05-21T10:02:29.428Z,22.0300
2023-05-21T10:03:31.434Z,22.0802
2023-05-21T10:04:33.469Z,22.1288
2023-05-21T10:05:35.521Z,22.1767
2023-05-21T10:06:37.566Z,22.2359
2023-05-21T10:07:39.595Z,22.2500
2023-05-21T10:08:41.655Z,22.2073
2023-05-21T10:09:43.714Z,22.1985
2023-05-21T10:10:45.736Z,22.2138
2023-05-21T10:11:47.801Z,22.2358
2023-05-21T10:12:49.879Z,22.2458
2023-05-21T10:13:51.882Z,22.2240
2023-05-21T10:14:53.890Z,22.2309
2023-05-21T10:15:55.950Z,22.2448
2023-05-21T10:16:58.083Z,22.2804
2023-05-21T10:18:00.080Z,22.3117
2023-05-21T10:19:02.140Z,22.3345
2023-05-21T10:20:04.135Z,22.3298
2023-05-21T10:21:06.161Z,22.2993
2023-05-21T10:22:08.209Z,22.3086
2023-05-21T10:23:10.259Z,22.2948
2023-05-21T10:24:12.312Z,22.2513
2023-05-21T10:25:14.380Z,22.2180
2023-05-21T10:26:16.394Z,22.1954
2023-05-21T10:27:18.426Z,22.2436
2023-05-21T10:28:20.518Z,22.2515
2023-05-21T10:29:22.529Z,22.2708
2023-05-21T10:30:24.559Z,22.3100
2023-05-21T10:31:26.644Z,22.3343
2023-05-21T10:32:28.966Z,22.2919
2023-05-21T10:33:30.787Z,22.2583
2023-05-21T10:34:32.738Z,22.2462
2023-05-21T10:36:36.858Z,22.1662
2023-05-21T10:37:38.905Z,22.1194
2023-05-21T10:38:41.180Z,22.1084
2023-05-21T10:39:42.973Z,22.1404
2023-05-21T10:40:45.013Z,22.1470
2023-05-21T10:41:47.163Z,22.1688
2023-05-21T10:42:49.135Z,22.2157
2023-05-21T10:43:51.202Z,22.2892
2023-05-21T10:44:53.212Z,22.3477
2023-05-21T10:45:55.361Z,22.3853
2023-05-21T10:46:57.275Z,22.4170
2023-05-21T10:47:59.318Z,22.4534
2023-05-21T10:49:01.367Z,22.5212
2023-05-21T10:50:03.415Z,22.5822
2023-05-21T10:51:05.507Z,22.6207
2023-05-21T10:52:07.508Z,22.6302
2023-05-21T10:53:10.925Z,22.6373
2023-05-21T10:54:11.571Z,22.6331
2023-05-21T10:55:13.825Z,22.6071
2023-05-21T10:56:15.729Z,22.5687
2023-05-21T10:57:17.731Z,22.6023
2023-05-21T10:58:19.748Z,22.6614
2023-05-21T10:59:21.819Z,22.6621
2023-05-21T11:00:23.853Z,22.6583
2023-05-21T11:01:26.042Z,22.6612
2023-05-21T11:02:28.003Z,22.7140
2023-05-21T11:03:30.180Z,22.7577
2023-05-21T11:04:32.023Z,22.7511
2023-05-21T11:05:34.079Z,22.7503
2023-05-21T11:06:36.128Z,22.7671
2023-05-21T11:07:38.174Z,22.8045
2023-05-21T11:08:40.217Z,22.8574
2023-05-21T11:09:42.273Z,22.9161
2023-05-21T11:10:44.288Z,22.9914
2023-05-21T11:11:46.475Z,23.0436
2023-05-21T11:12:48.382Z,23.0195
2023-05-21T11:13:50.439Z,23.0070
2023-05-21T11:14:52.445Z,23.0038
2023-05-21T11:15:54.568Z,23.0173
2023-05-21T11:16:56.578Z,23.0355
2023-05-21T11:17:58.676Z,23.0361
2023-05-21T11:19:00.902Z,23.0538
2023-05-21T11:20:02.682Z,23.0657
2023-05-21T11:21:04.747Z,23.0829
2023-05-21T11:22:06.864Z,23.0920
2023-05-21T11:23:08.824Z,23.1187
2023-05-21T11:24:10.869Z,23.1311
2023-05-21T11:25:12.909Z,23.1551
2023-05-21T11:26:14.943Z,23.1990
2023-05-21T11:27:17.118Z,23.2250
2023-05-21T11:28:19.056Z,23.2397
2023-05-21T11:29:21.113Z,23.2418
2023-05-21T11:30:23.130Z,23.2289
2023-05-21T11:31:25.219Z,23.2004
2023-05-21T11:32:27.218Z,23.1641
2023-05-21T11:33:29.375Z,23.1455
2023-05-21T11:34:31.296Z,23.1473
2023-05-21T11:35:33.346Z,23.1558
2023-05-21T11:36:36.084Z,23.1156
2023-05-21T11:37:37.404Z,23.0343
2023-05-21T11:38:39.457Z,22.9620
2023-05-21T11:39:41.600Z,22.9971
2023-05-21T11:40:43.572Z,23.0388
2023-05-21T11:41:45.610Z,23.0932
2023-05-21T11:42:47.636Z,23.1263
2023-05-21T11:43:49.681Z,23.1466
2023-05-21T11:44:51.716Z,23.1578
2023-05-21T11:45:53.852Z,23.1717
2023-05-21T11:46:55.952Z,23.1818
2023-05-21T11:47:57.917Z,23.2149
2023-05-21T11:48:59.915Z,23.2508
2023-05-21T11:50:01.953Z,23.2713
2023-05-21T11:51:04.012Z,23.2494
2023-05-21T11:52:06.064Z,23.1867
2023-05-21T11:53:08.127Z,23.1638
2023-05-21T11:54:10.218Z,23.1661
2023-05-21T11:55:12.462Z,23.1631
2023-05-21T11:56:14.235Z,23.1928
2023-05-21T11:57:16.322Z,23.2755
2023-05-21T11:58:18.354Z,23.3102
2023-05-21T11:59:20.942Z,23.2658
2023-05-21T12:00:22.484Z,23.2447
2023-05-21T12:01:24.455Z,23.2428
2023-05-21T12:02:26.555Z,23.2413
2023-05-21T12:03:28.595Z,23.2093
2023-05-21T12:04:30.575Z,23.1491
2023-05-21T12:05:32.698Z,23.1290
2023-05-21T12:06:34.695Z,23.1234
2023-05-21T12:07:36.755Z,23.1555
2023-05-21T12:08:38.753Z,23.1820
2023-05-21T12:09:40.895Z,23.2132
2023-05-21T12:10:44.427Z,23.2529
2023-05-21T12:11:44.907Z,23.3252
2023-05-21T12:12:55.610Z,23.4185
2023-05-21T12:13:49.010Z,23.4876
2023-05-21T12:14:51.017Z,23.5468
2023-05-21T12:15:53.069Z,23.6169
2023-05-21T12:16:55.163Z,23.6813
2023-05-21T12:17:57.396Z,23.7130
2023-05-21T12:18:59.250Z,23.6966
2023-05-21T12:20:01.290Z,23.6874
2023-05-21T12:21:03.349Z,23.7351
2023-05-21T12:22:05.368Z,23.7781
2023-05-21T12:23:07.418Z,23.8275
2023-05-21T12:24:09.547Z,23.8404
2023-05-21T12:25:11.535Z,23.8555
2023-05-21T12:26:13.586Z,23.8571
2023-05-21T12:27:15.735Z,23.8575
2023-05-21T12:28:17.687Z,23.8648
2023-05-21T12:29:19.702Z,23.8548
2023-05-21T12:30:21.802Z,23.8514
2023-05-21T12:31:23.846Z,23.8349
2023-05-21T12:32:25.918Z,23.8491
2023-05-21T12:33:27.894Z,23.8601
2023-05-21T12:34:29.943Z,23.8716
2023-05-21T12:35:32.082Z,23.8480
2023-05-21T12:36:34.071Z,23.8275
2023-05-21T12:37:36.111Z,23.7993
2023-05-21T12:38:38.126Z,23.7890
2023-05-21T12:39:40.175Z,23.7909
2023-05-21T12:40:42.234Z,23.8090
2023-05-21T12:41:44.281Z,23.8200
2023-05-21T12:42:46.325Z,23.8170
2023-05-21T12:43:48.371Z,23.8293
2023-05-21T12:44:50.404Z,23.8374
2023-05-21T12:45:52.503Z,23.8200
2023-05-21T12:46:54.513Z,23.8143
2023-05-21T12:47:56.753Z,23.8025
2023-05-21T12:48:58.589Z,23.7733
2023-05-21T12:50:00.641Z,23.7385
2023-05-21T12:51:02.704Z,23.7192
2023-05-21T12:52:04.761Z,23.5996
2023-05-21T12:53:06.830Z,23.5503
2023-05-21T12:54:08.832Z,23.5005
2023-05-21T12:55:10.895Z,23.3980
2023-05-21T12:56:12.917Z,23.3068
2023-05-21T12:57:14.980Z,23.2490
2023-05-21T12:58:17.002Z,23.1914
2023-05-21T12:59:19.055Z,23.1470
2023-05-21T13:00:21.107Z,23.1191
2023-05-21T13:01:23.167Z,23.0705
2023-05-21T13:02:25.243Z,23.0638
2023-05-21T13:03:27.248Z,23.0694
2023-05-21T13:04:29.308Z,23.0666
2023-05-21T13:05:31.327Z,23.0860
2023-05-21T13:06:33.388Z,23.0813
2023-05-21T13:07:35.417Z,23.0686
2023-05-21T13:08:37.489Z,23.0300
2023-05-21T13:09:39.513Z,22.9788
2023-05-21T13:10:41.565Z,22.9502
2023-05-21T13:11:43.658Z,22.9174
2023-05-21T13:12:45.700Z,22.9143
2023-05-21T13:13:47.727Z,22.9295
2023-05-21T13:14:49.773Z,22.9454
2023-05-21T13:15:51.802Z,22.9204
2023-05-21T13:16:53.869Z,22.9183
2023-05-21T13:17:56.948Z,22.9149
2023-05-21T13:18:58.031Z,22.8514
2023-05-21T13:20:00.005Z,22.8150
2023-05-21T13:21:02.021Z,22.7770
2023-05-21T13:22:04.097Z,22.7535
2023-05-21T13:23:07.263Z,22.7376
2023-05-21T13:24:08.170Z,22.7058
2023-05-21T13:25:10.235Z,22.6449
2023-05-21T13:26:12.283Z,22.6454
2023-05-21T13:27:14.330Z,22.6260
2023-05-21T13:28:16.359Z,22.6404
2023-05-21T13:29:18.437Z,22.6377
2023-05-21T13:30:20.486Z,22.6368
2023-05-21T13:31:22.492Z,22.6291
2023-05-21T13:32:24.622Z,22.6451
2023-05-21T13:33:26.801Z,22.6406
2023-05-21T13:34:28.637Z,22.6425
2023-05-21T13:35:31.177Z,22.6457
2023-05-21T13:36:32.725Z,22.6351
2023-05-21T13:37:34.765Z,22.6605
2023-05-21T13:38:36.823Z,22.6490
2023-05-21T13:39:38.897Z,22.6673
2023-05-21T13:40:41.102Z,22.6840
2023-05-21T13:41:43.044Z,22.6834
2023-05-21T13:42:45.200Z,22.6806
2023-05-21T13:43:47.117Z,22.6739
2023-05-21T13:44:49.194Z,22.6824
2023-05-21T13:45:51.228Z,22.6919
2023-05-21T13:46:53.353Z,22.6735
2023-05-21T13:47:55.363Z,22.6773
2023-05-21T13:48:57.348Z,22.6946
2023-05-21T13:49:59.412Z,22.7095
2023-05-21T13:51:01.446Z,22.7157
2023-05-21T13:52:03.579Z,22.7169
2023-05-21T13:53:05.485Z,22.6924
2023-05-21T13:54:07.544Z,22.6771
2023-05-21T13:55:09.574Z,22.6890
2023-05-21T13:56:11.637Z,22.6843
2023-05-21T13:57:13.694Z,22.7025
2023-05-21T13:58:15.746Z,22.7048
2023-05-21T13:59:17.763Z,22.6859
2023-05-21T14:00:19.831Z,22.6451
2023-05-21T14:01:21.926Z,22.6431
2023-05-21T14:02:24.042Z,22.6417
2023-05-21T14:03:26.010Z,22.6489
2023-05-21T14:04:28.007Z,22.6427
2023-05-21T14:05:30.021Z,22.6768
2023-05-21T14:06:32.101Z,22.6790
2023-05-21T14:07:34.170Z,22.6798
2023-05-21T14:08:36.214Z,22.6695
2023-05-21T14:09:38.240Z,22.6152
2023-05-21T14:10:40.308Z,22.5954
2023-05-21T14:11:42.404Z,22.6042
2023-05-21T14:12:44.343Z,22.6057
2023-05-21T14:13:46.397Z,22.6176
2023-05-21T14:14:48.498Z,22.6526
2023-05-21T14:15:50.524Z,22.6810
2023-05-21T14:16:52.873Z,22.7061
2023-05-21T14:17:54.782Z,22.7184
2023-05-21T14:18:56.687Z,22.7463
2023-05-21T14:19:58.747Z,22.7466
2023-05-21T14:21:00.764Z,22.7502
2023-05-21T14:22:02.781Z,22.8705
2023-05-21T14:23:04.832Z,22.9317
2023-05-21T14:24:07.016Z,22.9844
2023-05-21T14:25:08.968Z,23.0009
2023-05-21T14:26:11.011Z,22.9786
2023-05-21T14:27:15.273Z,22.9648
2023-05-21T14:28:15.138Z,22.9275
2023-05-21T14:29:17.054Z,22.8756
2023-05-21T14:30:19.116Z,22.8730
2023-05-21T14:31:21.154Z,22.8847
2023-05-21T14:32:23.449Z,22.8649
2023-05-21T14:33:25.270Z,22.8185
2023-05-21T14:34:27.290Z,22.7633
2023-05-21T14:35:29.396Z,22.7448
2023-05-21T14:36:31.543Z,22.7294
2023-05-21T14:37:33.474Z,22.7412
2023-05-21T14:38:35.448Z,22.8097
2023-05-21T14:39:37.507Z,22.8505
2023-05-21T14:40:39.636Z,22.8530
2023-05-21T14:41:41.627Z,22.8646
2023-05-21T14:42:43.681Z,22.8615
2023-05-21T14:43:45.685Z,22.8181
2023-05-21T14:44:47.751Z,22.8131
2023-05-21T14:45:49.786Z,22.8021
2023-05-21T14:46:51.852Z,22.7818
2023-05-21T14:47:53.940Z,22.7626
2023-05-21T14:48:55.912Z,22.8235
2023-05-21T14:49:58.074Z,22.8520
2023-05-21T14:51:00.072Z,22.8646
2023-05-21T14:52:02.050Z,22.8847
2023-05-21T14:53:04.146Z,22.8889
2023-05-21T14:54:06.129Z,22.8636
2023-05-21T14:55:08.152Z,22.8442
2023-05-21T14:56:10.259Z,22.8625
2023-05-21T14:57:12.355Z,22.8710
2023-05-21T14:58:14.773Z,22.8913
2023-05-21T14:59:16.358Z,22.9034
2023-05-21T15:00:18.420Z,22.9033
2023-05-21T15:01:20.480Z,22.9279
2023-05-21T15:02:22.559Z,22.8997
2023-05-21T15:03:24.710Z,22.8908
2023-05-21T15:04:26.686Z,22.9212
2023-05-21T15:05:28.653Z,22.9694
2023-05-21T15:06:30.696Z,22.9765
2023-05-21T15:07:32.712Z,22.9606
2023-05-21T15:08:34.850Z,22.9332
2023-05-21T15:09:36.817Z,22.9396
2023-05-21T15:10:38.911Z,22.9333
2023-05-21T15:11:40.915Z,22.9288
2023-05-21T15:12:43.032Z,22.9329
2023-05-21T15:13:44.994Z,22.9393
2023-05-21T15:14:47.021Z,22.9739
2023-05-21T15:15:49.114Z,22.9946
2023-05-21T15:16:51.249Z,22.9948
2023-05-21T15:17:53.211Z,23.0557
2023-05-21T15:18:55.238Z,23.1338
2023-05-21T15:19:57.295Z,23.1972
2023-05-21T15:20:59.339Z,23.2346
2023-05-21T15:22:01.405Z,23.2633
2023-05-21T15:24:05.452Z,23.3310
2023-05-21T15:25:07.540Z,23.3301
2023-05-21T15:26:09.554Z,23.3222
2023-05-21T15:27:11.615Z,23.3506
2023-05-21T15:28:13.665Z,23.3867
2023-05-21T15:29:15.708Z,23.4230
2023-05-21T15:30:17.745Z,23.4453
2023-05-21T15:31:19.789Z,23.4558
2023-05-21T15:32:21.920Z,23.4704
2023-05-21T15:33:23.896Z,23.4877
2023-05-21T15:34:25.958Z,23.5282
2023-05-21T15:35:28.148Z,23.5599
2023-05-21T15:36:30.007Z,23.5781
2023-05-21T15:37:32.118Z,23.6082
2023-05-21T15:38:34.133Z,23.6165
2023-05-21T15:39:36.173Z,23.6157
2023-05-21T15:40:38.233Z,23.6118
2023-05-21T15:41:40.280Z,23.6100
2023-05-21T15:42:42.288Z,23.6208
2023-05-21T15:43:44.328Z,23.6144
2023-05-21T15:44:46.449Z,23.5846
2023-05-21T15:45:48.448Z,23.5718
2023-05-21T15:46:50.524Z,23.5635
2023-05-21T15:47:52.669Z,23.5353
2023-05-21T15:48:54.580Z,23.4809
2023-05-21T15:49:56.639Z,23.3809
2023-05-21T15:50:58.655Z,23.2295
2023-05-21T15:52:00.693Z,23.1461
2023-05-21T15:53:02.758Z,23.0924
2023-05-21T15:54:04.785Z,23.0033
2023-05-21T15:55:06.832Z,22.8887
2023-05-21T15:56:08.871Z,22.8389
2023-05-21T15:57:10.951Z,22.7897
2023-05-21T15:58:13.003Z,22.7173
2023-05-21T15:59:15.042Z,22.6401
